createdAt,value
2018-12-06T00:00:05.306Z,29.14
2018-12-06T00:02:31.631Z,28.94
2018-12-06T00:04:58.023Z,28.94
2018-12-06T00:07:24.367Z,28.95
2018-12-06T00:09:52.928Z,28.98
2018-12-06T00:12:19.283Z,29.13
2018-12-06T00:14:45.694Z,29.05
2018-12-06T00:17:12.145Z,29.02
2018-12-06T00:19:38.490Z,28.92
2018-12-06T00:22:04.817Z,28.92
2018-12-06T00:24:31.151Z,28.99
2018-12-06T00:26:57.546Z,29.20
2018-12-06T00:29:23.897Z,29.08
2018-12-06T00:31:50.309Z,29.04
2018-12-06T00:34:16.621Z,28.96
2018-12-06T00:36:43.032Z,28.91
2018-12-06T00:39:09.367Z,28.94
2018-12-06T00:41:35.698Z,29.04
2018-12-06T00:44:02.092Z,29.20
2018-12-06T00:46:28.442Z,29.08
2018-12-06T00:48:54.778Z,28.98
2018-12-06T00:51:21.181Z,28.96
2018-12-06T00:53:47.511Z,28.87
2018-12-06T00:56:13.841Z,28.84
2018-12-06T00:58:40.171Z,29.08
2018-12-06T01:01:06.514Z,29.05
2018-12-06T01:03:32.900Z,28.98
2018-12-06T01:05:59.284Z,28.58
2018-12-06T01:08:25.632Z,27.97
2018-12-06T01:10:52.077Z,27.95
2018-12-06T01:13:18.342Z,28.32
2018-12-06T01:15:44.741Z,28.13
2018-12-06T01:18:11.075Z,28.32
2018-12-06T01:20:37.413Z,28.56
2018-12-06T01:23:03.804Z,28.32
2018-12-06T01:25:30.127Z,28.33
2018-12-06T01:27:56.520Z,28.57
2018-12-06T01:30:22.854Z,28.38
2018-12-06T01:32:49.192Z,28.21
2018-12-06T01:35:15.580Z,28.19
2018-12-06T01:37:41.909Z,28.41
2018-12-06T01:40:08.247Z,28.19
2018-12-06T01:42:34.598Z,28.34
2018-12-06T01:45:00.940Z,28.15
2018-12-06T01:47:27.272Z,28.05
2018-12-06T01:49:53.735Z,28.07
2018-12-06T01:52:20.048Z,28.12
2018-12-06T01:54:46.367Z,28.02
2018-12-06T01:57:12.767Z,28.09
2018-12-06T01:59:39.145Z,28.16
2018-12-06T02:02:05.525Z,27.74
2018-12-06T02:04:31.770Z,27.92
2018-12-06T02:06:58.136Z,27.80
2018-12-06T02:09:24.606Z,28.06
2018-12-06T02:11:50.907Z,27.97
2018-12-06T02:14:17.223Z,27.84
2018-12-06T02:16:43.911Z,27.51
2018-12-06T02:19:09.888Z,27.41
2018-12-06T02:21:36.216Z,27.24
2018-12-06T02:24:03.743Z,27.10
2018-12-06T02:26:28.980Z,27.10
2018-12-06T02:28:55.227Z,27.07
2018-12-06T02:31:21.788Z,27.10
2018-12-06T02:33:48.136Z,26.97
2018-12-06T02:36:14.415Z,27.21
2018-12-06T02:38:40.809Z,27.03
2018-12-06T02:41:07.100Z,27.00
2018-12-06T02:43:33.482Z,26.88
2018-12-06T02:45:59.870Z,26.90
2018-12-06T02:48:26.299Z,26.75
2018-12-06T02:50:52.623Z,26.72
2018-12-06T02:53:18.939Z,26.63
2018-12-06T02:55:45.266Z,26.61
2018-12-06T02:58:11.635Z,26.79
2018-12-06T03:00:37.979Z,26.84
2018-12-06T03:03:04.299Z,26.66
2018-12-06T03:05:30.700Z,26.67
2018-12-06T03:07:57.059Z,26.58
2018-12-06T03:10:23.473Z,26.57
2018-12-06T03:12:49.847Z,26.42
2018-12-06T03:15:16.173Z,26.38
2018-12-06T03:17:42.566Z,26.46
2018-12-06T03:20:08.890Z,26.34
2018-12-06T03:22:35.270Z,26.38
2018-12-06T03:25:01.611Z,26.51
2018-12-06T03:27:28.011Z,26.66
2018-12-06T03:29:54.325Z,26.46
2018-12-06T03:32:20.728Z,26.49
2018-12-06T03:34:47.082Z,26.36
2018-12-06T03:37:13.430Z,26.15
2018-12-06T03:39:39.782Z,26.23
2018-12-06T03:42:06.177Z,26.18
2018-12-06T03:44:32.504Z,26.18
2018-12-06T03:46:58.903Z,26.31
2018-12-06T03:49:25.229Z,26.32
2018-12-06T03:51:51.571Z,26.35
2018-12-06T03:54:17.971Z,26.31
2018-12-06T03:56:44.428Z,26.14
2018-12-06T03:59:10.930Z,26.18
2018-12-06T04:01:37.154Z,25.92
2018-12-06T04:04:03.533Z,25.88
2018-12-06T04:06:29.931Z,25.88
2018-12-06T04:08:56.312Z,25.83
2018-12-06T04:11:22.673Z,25.81
2018-12-06T04:13:49.068Z,25.66
2018-12-06T04:16:15.411Z,25.74
2018-12-06T04:18:41.737Z,25.68
2018-12-06T04:21:08.117Z,25.76
2018-12-06T04:23:34.442Z,25.76
2018-12-06T04:26:00.833Z,25.69
2018-12-06T04:28:27.158Z,25.70
2018-12-06T04:30:53.486Z,25.64
2018-12-06T04:33:19.872Z,25.63
2018-12-06T04:35:46.219Z,25.56
2018-12-06T04:38:12.658Z,25.56
2018-12-06T04:40:39.076Z,25.63
2018-12-06T04:43:05.446Z,25.59
2018-12-06T04:45:31.828Z,25.71
2018-12-06T04:47:58.326Z,25.60
2018-12-06T04:50:24.691Z,25.63
2018-12-06T04:52:51.057Z,25.37
2018-12-06T04:55:17.375Z,25.36
2018-12-06T04:57:43.704Z,25.17
2018-12-06T05:00:10.034Z,25.27
2018-12-06T05:02:36.361Z,25.15
2018-12-06T05:05:02.781Z,25.13
2018-12-06T05:07:29.247Z,25.20
2018-12-06T05:09:55.591Z,25.25
2018-12-06T05:12:21.965Z,25.55
2018-12-06T05:14:48.352Z,25.09
2018-12-06T05:17:14.737Z,25.14
2018-12-06T05:19:41.158Z,25.32
2018-12-06T05:22:07.509Z,25.24
2018-12-06T05:24:33.867Z,24.99
2018-12-06T05:27:00.226Z,25.01
2018-12-06T05:29:26.552Z,25.20
2018-12-06T05:31:52.934Z,25.07
2018-12-06T05:34:19.221Z,25.03
2018-12-06T05:36:45.613Z,25.00
2018-12-06T05:39:11.950Z,24.97
2018-12-06T05:41:38.357Z,24.76
2018-12-06T05:44:04.764Z,24.83
2018-12-06T05:46:31.162Z,24.76
2018-12-06T05:48:57.544Z,24.91
2018-12-06T05:51:24.971Z,24.88
2018-12-06T05:53:50.213Z,24.96
